Time;durP1;ratioP1;P1;durP2;ratioP2;P2;SDS_P1;SDS_P2;PMS_P1;PMS_P2;Temp;Humidity;BMP_temperature;BMP_pressure;BME280_temperature;BME280_humidity;BME280_pressure;Samples;Min_cycle;Max_cycle;Signal;HPM_P1;HPM_P2
2021/08/19 00:00:52;;;;;;;;;;;17.40;99.90;;;;;;5056348;28;20397;-79
2021/08/19 00:03:18;;;;;;;6.30;2.53;;;17.50;99.90;;;;;;5056063;28;19948;-79
2021/08/19 00:05:44;;;;;;;;;;;17.40;99.90;;;;;;5055625;28;20505;-79
2021/08/19 00:08:09;;;;;;;8.90;3.10;;;17.00;99.90;;;;;;5055592;28;20388;-78
2021/08/19 00:10:35;;;;;;;;;;;17.00;99.90;;;;;;5056000;28;20099;-79
2021/08/19 00:13:01;;;;;;;8.23;2.67;;;17.20;99.90;;;;;;5055537;28;19905;-78
2021/08/19 00:15:27;;;;;;;;;;;17.30;99.90;;;;;;5056234;28;20429;-77
2021/08/19 00:17:53;;;;;;;9.32;3.05;;;17.30;99.90;;;;;;5055421;28;19911;-79
2021/08/19 00:20:18;;;;;;;;;;;17.30;99.90;;;;;;5037894;28;20082;-79
2021/08/19 00:22:44;;;;;;;6.95;2.60;;;17.20;99.90;;;;;;5055451;28;19950;-80
2021/08/19 00:25:10;;;;;;;;;;;17.10;99.90;;;;;;5037722;28;20120;-78
2021/08/19 00:27:36;;;;;;;10.00;3.47;;;17.10;99.90;;;;;;5055648;28;19905;-80
2021/08/19 00:30:01;;;;;;;;;;;17.20;99.90;;;;;;5055633;28;20021;-79
2021/08/19 00:32:28;;;;;;;8.35;3.22;;;17.10;99.90;;;;;;5055153;28;20277;-79
2021/08/19 00:34:54;;;;;;;7.97;3.60;;;17.10;99.90;;;;;;5054734;28;20116;-78
2021/08/19 00:37:19;;;;;;;;;;;16.90;99.90;;;;;;5055836;28;20182;-78
2021/08/19 00:39:45;;;;;;;6.55;3.25;;;16.90;99.90;;;;;;5055078;28;19905;-79
2021/08/19 00:42:12;;;;;;;;;;;16.90;99.90;;;;;;5055429;28;20489;-79
2021/08/19 00:44:48;;;;;;;7.05;3.10;;;16.80;99.90;;;;;;5037113;28;19944;-80
2021/08/19 00:47:13;;;;;;;;;;;16.90;99.90;;;;;;5055356;28;20051;-79
2021/08/19 00:49:43;;;;;;;9.40;3.25;;;17.10;99.90;;;;;;5055025;28;19909;-79
2021/08/19 00:52:11;;;;;;;9.48;3.42;;;17.10;99.90;;;;;;5054869;28;20500;-79
2021/08/19 00:54:37;;;;;;;6.88;3.10;;;17.20;99.90;;;;;;5054729;28;20032;-79
2021/08/19 00:57:05;;;;;;;7.68;2.80;;;17.20;99.90;;;;;;5055081;28;20017;-79
2021/08/19 00:59:36;;;;;;;11.02;3.65;;;17.20;99.90;;;;;;5054606;28;20545;-77
2021/08/19 01:02:02;;;;;;;8.15;3.00;;;17.00;99.90;;;;;;5054670;28;20377;-79
2021/08/19 01:04:32;;;;;;;8.88;3.13;;;17.10;99.90;;;;;;5054564;28;20043;-80
2021/08/19 01:07:01;;;;;;;6.60;2.90;;;17.20;99.90;;;;;;5054516;28;20081;-79
2021/08/19 01:09:28;;;;;;;9.85;3.08;;;17.30;99.90;;;;;;5054466;28;20060;-80
2021/08/19 01:11:54;;;;;;;7.10;3.40;;;17.10;99.90;;;;;;5054389;28;20021;-80
2021/08/19 01:14:20;;;;;;;7.53;3.13;;;17.10;99.90;;;;;;5036446;28;20094;-80
2021/08/19 01:16:47;;;;;;;9.15;3.20;;;17.20;99.90;;;;;;5054624;28;20092;-79
2021/08/19 01:19:18;;;;;;;7.55;3.25;;;17.20;99.90;;;;;;5053427;28;20025;-79
2021/08/19 01:21:45;;;;;;;8.98;3.38;;;17.30;99.90;;;;;;5054274;28;20037;-80
2021/08/19 01:24:12;;;;;;;7.78;3.42;;;17.30;99.90;;;;;;5054293;28;20473;-77
2021/08/19 01:26:39;;;;;;;9.35;3.35;;;17.30;99.90;;;;;;5054139;28;20044;-80
2021/08/19 01:29:05;;;;;;;8.52;3.20;;;17.30;99.90;;;;;;5054053;28;20108;-79
2021/08/19 01:31:32;;;;;;;7.78;3.72;;;17.20;99.90;;;;;;5054073;28;20503;-78
2021/08/19 01:33:58;;;;;;;8.55;3.40;;;17.20;99.90;;;;;;5051153;28;20045;-79
2021/08/19 01:36:24;;;;;;;8.77;3.53;;;17.20;99.90;;;;;;5074026;28;20115;-79
2021/08/19 01:38:51;;;;;;;;;;;17.20;99.90;;;;;;5074326;28;20488;-80
2021/08/19 01:41:17;;;;;;;9.52;3.30;;;17.00;99.90;;;;;;5073886;28;20284;-80
2021/08/19 01:43:45;;;;;;;9.18;3.70;;;17.00;99.90;;;;;;5073858;28;20035;-79
2021/08/19 01:46:12;;;;;;;7.97;3.80;;;17.00;99.90;;;;;;5073765;28;20027;-79
2021/08/19 01:48:42;;;;;;;10.95;3.80;;;17.10;99.90;;;;;;5073717;28;20481;-77
2021/08/19 01:51:13;;;;;;;7.78;3.45;;;17.10;99.90;;;;;;5073722;28;20020;-79
2021/08/19 01:53:42;;;;;;;11.00;3.75;;;17.10;99.90;;;;;;5072265;28;20021;-80
2021/08/19 01:56:08;;;;;;;10.65;3.72;;;17.10;99.90;;;;;;5073621;28;20475;-79
2021/08/19 01:58:34;;;;;;;7.05;3.53;;;17.10;99.90;;;;;;5073598;28;20500;-77
2021/08/19 02:00:59;;;;;;;;;;;17.00;99.90;;;;;;5072685;28;20025;-78
2021/08/19 02:03:25;;;;;;;9.57;3.80;;;17.10;99.90;;;;;;5073607;28;19904;-80
2021/08/19 02:05:51;;;;;;;;;;;17.00;99.90;;;;;;5073925;28;20445;-79
2021/08/19 02:08:17;;;;;;;8.68;3.67;;;17.00;99.90;;;;;;5073666;28;20366;-79
2021/08/19 02:10:44;;;;;;;7.95;3.25;;;16.90;99.90;;;;;;5072198;28;20024;-79
2021/08/19 02:13:14;;;;;;;9.38;3.60;;;16.90;99.90;;;;;;5073395;28;20020;-81
2021/08/19 02:15:40;;;;;;;12.40;3.28;;;16.80;99.90;;;;;;5073459;28;20028;-78
2021/08/19 02:18:06;;;;;;;10.73;3.78;;;16.80;99.90;;;;;;5073343;28;20034;-80
2021/08/19 02:20:32;;;;;;;8.18;3.70;;;16.90;99.90;;;;;;5073349;28;20024;-80
2021/08/19 02:22:59;;;;;;;;;;;16.90;99.90;;;;;;5073850;28;20028;-79
2021/08/19 02:25:25;;;;;;;10.43;3.55;;;17.00;99.90;;;;;;5071919;28;19999;-78
2021/08/19 02:27:50;;;;;;;;;;;17.00;99.90;;;;;;5073717;28;20024;-79
2021/08/19 02:30:16;;;;;;;7.53;3.20;;;16.80;99.90;;;;;;5073099;28;19904;-79
2021/08/19 02:32:42;;;;;;;;;;;16.80;99.90;;;;;;5073811;28;20033;-78
2021/08/19 02:35:08;;;;;;;8.02;3.30;;;16.90;99.90;;;;;;5053670;28;19924;-78
2021/08/19 02:37:33;;;;;;;;;;;16.90;99.90;;;;;;5053551;28;20096;-79
2021/08/19 02:39:59;;;;;;;9.98;3.22;;;17.00;99.90;;;;;;5053136;28;20398;-78
2021/08/19 02:42:25;;;;;;;;;;;17.00;99.90;;;;;;5053497;28;20531;-79
2021/08/19 02:44:51;;;;;;;10.30;3.20;;;17.00;99.90;;;;;;5053287;28;19905;-78
2021/08/19 02:47:16;;;;;;;;;;;17.00;99.90;;;;;;5053504;28;20381;-78
2021/08/19 02:49:42;;;;;;;10.07;3.63;;;16.90;99.90;;;;;;5053060;28;19940;-79
2021/08/19 02:52:08;;;;;;;;;;;16.80;99.90;;;;;;5053409;28;20439;-79
2021/08/19 02:54:33;;;;;;;7.55;3.30;;;16.70;99.90;;;;;;5035014;28;19909;-80
2021/08/19 02:56:59;;;;;;;;;;;16.70;99.90;;;;;;5053326;28;20025;-78
2021/08/19 02:59:25;;;;;;;12.85;3.47;;;16.80;99.90;;;;;;5053160;28;19911;-80
2021/08/19 03:01:50;;;;;;;;;;;16.90;99.90;;;;;;5053356;28;20021;-79
2021/08/19 03:04:16;;;;;;;6.55;3.20;;;16.80;99.90;;;;;;5035029;28;20361;-78
2021/08/19 03:06:42;;;;;;;;;;;16.90;99.90;;;;;;5053262;28;20390;-79
2021/08/19 03:09:07;;;;;;;11.63;3.25;;;16.90;99.90;;;;;;5052778;28;19936;-80
2021/08/19 03:11:33;;;;;;;;;;;16.90;99.90;;;;;;5035341;28;20036;-79
2021/08/19 03:13:59;;;;;;;11.52;2.95;;;17.00;99.90;;;;;;5034855;28;19919;-80
2021/08/19 03:16:25;;;;;;;10.88;3.22;;;16.90;99.90;;;;;;5052747;28;20017;-78
2021/08/19 03:18:50;;;;;;;;;;;16.70;99.90;;;;;;5053055;28;20505;-79
2021/08/19 03:21:20;;;;;;;8.20;2.70;;;16.80;99.90;;;;;;5052672;28;20396;-80
2021/08/19 03:23:46;;;;;;;7.90;3.10;;;16.80;99.90;;;;;;5052863;28;20390;-79
2021/08/19 03:26:12;;;;;;;6.75;2.70;;;16.80;99.90;;;;;;5052651;28;20017;-79
2021/08/19 03:28:40;;;;;;;;;;;16.80;99.90;;;;;;5053029;28;20028;-78
2021/08/19 03:31:07;;;;;;;6.50;2.70;;;16.80;99.90;;;;;;5053200;28;20325;-78
2021/08/19 03:33:32;;;;;;;7.80;3.15;;;16.80;99.90;;;;;;5052263;28;20052;-78
2021/08/19 03:35:58;;;;;;;;;;;16.90;99.90;;;;;;5052922;28;20378;-79
2021/08/19 03:38:26;;;;;;;8.15;3.10;;;16.90;99.90;;;;;;5052566;28;19905;-79
2021/08/19 03:40:51;;;;;;;9.07;3.45;;;16.90;99.90;;;;;;5053097;28;20025;-79
2021/08/19 03:43:18;;;;;;;;;;;16.80;99.90;;;;;;5056614;28;20107;-80
2021/08/19 03:45:43;;;;;;;8.68;3.28;;;16.60;99.90;;;;;;5056117;28;19905;-79
2021/08/19 03:48:09;;;;;;;;;;;16.60;99.90;;;;;;5056490;28;20037;-78
2021/08/19 03:50:35;;;;;;;7.10;3.15;;;16.50;99.90;;;;;;5056242;28;19975;-79
2021/08/19 03:53:00;;;;;;;;;;;16.50;99.90;;;;;;5038466;28;20029;-78
2021/08/19 03:55:26;;;;;;;9.07;3.25;;;16.50;99.90;;;;;;5055879;28;19954;-79
2021/08/19 03:57:51;;;;;;;;;;;16.30;99.90;;;;;;5056284;28;20056;-79
2021/08/19 04:00:17;;;;;;;12.13;3.28;;;16.20;99.90;;;;;;5038017;28;20403;-79
2021/08/19 04:02:46;;;;;;;;;;;16.50;99.90;;;;;;5056428;28;20024;-79
2021/08/19 04:05:12;;;;;;;8.13;2.80;;;16.60;99.90;;;;;;5037821;28;19905;-80
2021/08/19 04:07:38;;;;;;;;;;;16.30;99.90;;;;;;5038135;28;20036;-79
2021/08/19 04:10:04;;;;;;;7.57;2.90;;;16.50;99.90;;;;;;5055645;28;19905;-78
2021/08/19 04:12:30;;;;;;;9.27;3.53;;;16.50;99.90;;;;;;5037665;28;20029;-78
2021/08/19 04:14:55;;;;;;;;;;;16.00;99.90;;;;;;5038066;28;20031;-80
2021/08/19 04:17:21;;;;;;;10.82;4.13;;;16.10;99.90;;;;;;5055496;28;19905;-77
2021/08/19 04:19:47;;;;;;;;;;;15.70;99.90;;;;;;5055900;28;20024;-80
2021/08/19 04:22:12;;;;;;;8.52;3.00;;;15.80;99.90;;;;;;5055739;28;19915;-80
2021/08/19 04:24:38;;;;;;;;;;;16.10;99.90;;;;;;5055825;28;20033;-79
2021/08/19 04:27:04;;;;;;;9.02;3.33;;;16.20;99.90;;;;;;5055497;28;20261;-80
2021/08/19 04:29:33;;;;;;;;;;;16.20;99.90;;;;;;5056137;28;20083;-79
2021/08/19 04:32:00;;;;;;;7.97;3.20;;;16.30;99.90;;;;;;5055240;28;19905;-79
2021/08/19 04:34:26;;;;;;;7.55;3.15;;;16.20;99.90;;;;;;5055023;28;20045;-79
2021/08/19 04:36:52;;;;;;;6.88;2.80;;;16.20;99.90;;;;;;5055132;28;20009;-79
2021/08/19 04:39:18;;;;;;;;;;;16.20;99.90;;;;;;5037696;28;20401;-78
2021/08/19 04:41:44;;;;;;;8.05;3.05;;;16.20;99.90;;;;;;5055083;28;19904;-78
2021/08/19 04:44:09;;;;;;;;;;;16.20;99.90;;;;;;5055430;28;20067;-78
2021/08/19 04:46:35;;;;;;;8.43;3.08;;;16.40;99.90;;;;;;5055186;28;20369;-79
2021/08/19 04:49:05;;;;;;;;;;;16.40;99.90;;;;;;5055413;28;20040;-77
2021/08/19 04:51:34;;;;;;;9.45;2.90;;;16.20;99.90;;;;;;5054908;28;19904;-79
2021/08/19 04:54:02;;;;;;;7.88;3.20;;;16.20;99.90;;;;;;5055039;28;20066;-79
2021/08/19 04:56:29;;;;;;;11.57;3.20;;;16.30;99.90;;;;;;5054766;28;20025;-79
2021/08/19 04:58:56;;;;;;;9.90;2.97;;;16.20;99.90;;;;;;5054713;28;20027;-79
2021/08/19 05:01:22;;;;;;;8.10;3.38;;;16.30;99.90;;;;;;5054698;28;20028;-78
2021/08/19 05:03:47;;;;;;;;;;;16.10;99.90;;;;;;5037204;28;20568;-80
2021/08/19 05:06:13;;;;;;;10.10;3.35;;;15.90;99.90;;;;;;5054567;28;19905;-79
2021/08/19 05:08:38;;;;;;;;;;;15.90;99.90;;;;;;5054996;28;20029;-79
2021/08/19 05:11:04;;;;;;;6.20;2.90;;;16.10;99.90;;;;;;5054450;28;19905;-79
2021/08/19 05:13:31;;;;;;;;;;;16.30;99.90;;;;;;5054970;28;20025;-80
2021/08/19 05:15:57;;;;;;;7.97;3.05;;;16.30;99.90;;;;;;5054707;28;19943;-80
2021/08/19 05:18:22;;;;;;;;;;;16.30;99.90;;;;;;5054875;28;20033;-80
2021/08/19 05:20:48;;;;;;;9.93;3.20;;;16.20;99.90;;;;;;5054438;28;19971;-80
2021/08/19 05:23:14;;;;;;;;;;;16.30;99.90;;;;;;5054654;28;20032;-78
2021/08/19 05:25:39;;;;;;;9.18;3.60;;;16.40;99.90;;;;;;5054533;28;19905;-79
2021/08/19 05:28:05;;;;;;;;;;;16.40;99.90;;;;;;5054835;28;20028;-77
2021/08/19 05:30:31;;;;;;;9.07;3.60;;;15.70;99.90;;;;;;5054657;28;19905;-80
2021/08/19 05:32:56;;;;;;;;;;;15.50;99.90;;;;;;5054263;28;20017;-80
2021/08/19 05:35:22;;;;;;;10.05;3.28;;;15.70;99.90;;;;;;5053968;28;19904;-80
2021/08/19 05:37:48;;;;;;;11.05;3.65;;;15.80;99.90;;;;;;5053934;28;20097;-77
2021/08/19 05:40:14;;;;;;;;;;;15.60;99.90;;;;;;5054339;28;20096;-78
2021/08/19 05:42:39;;;;;;;9.68;3.72;;;15.70;99.90;;;;;;5053938;28;19999;-79
2021/08/19 05:45:05;;;;;;;;;;;15.70;99.90;;;;;;5036347;28;20036;-78
2021/08/19 05:47:31;;;;;;;8.65;3.72;;;15.60;99.90;;;;;;5053794;28;19904;-80
2021/08/19 05:49:57;;;;;;;;;;;15.80;99.90;;;;;;5036263;28;20024;-79
2021/08/19 05:52:22;;;;;;;7.85;3.33;;;15.60;99.90;;;;;;5053865;28;19912;-78
2021/08/19 05:54:48;;;;;;;;;;;15.60;99.90;;;;;;5036279;28;20028;-79
2021/08/19 05:57:16;;;;;;;8.68;3.70;;;15.40;99.90;;;;;;5053844;28;19905;-79
2021/08/19 05:59:42;;;;;;;9.73;3.60;;;15.30;99.90;;;;;;5053538;28;20488;-79
2021/08/19 06:02:08;;;;;;;9.85;3.80;;;15.30;99.90;;;;;;5035558;28;20028;-79
2021/08/19 06:04:35;;;;;;;;;;;15.50;99.90;;;;;;5035660;28;20029;-78
2021/08/19 06:07:00;;;;;;;9.18;3.50;;;15.40;99.90;;;;;;5035641;28;19943;-79
2021/08/19 06:09:26;;;;;;;;;;;15.40;99.90;;;;;;5053888;28;20028;-79
2021/08/19 06:11:52;;;;;;;7.53;3.00;;;15.70;99.90;;;;;;5053470;28;19912;-78
2021/08/19 06:14:17;;;;;;;;;;;15.90;99.90;;;;;;5035812;28;20547;-79
2021/08/19 06:16:43;;;;;;;12.13;3.53;;;15.90;99.90;;;;;;5053730;28;19908;-78
2021/08/19 06:19:09;;;;;;;;;;;15.80;99.90;;;;;;5053689;28;20029;-79
2021/08/19 06:21:34;;;;;;;6.90;2.60;;;15.70;99.90;;;;;;5053507;28;19944;-80
2021/08/19 06:24:00;;;;;;;;;;;16.00;99.90;;;;;;5035743;28;20499;-78
2021/08/19 06:26:26;;;;;;;9.15;3.60;;;15.90;99.90;;;;;;5035134;28;20300;-79
2021/08/19 06:28:52;;;;;;;8.13;2.80;;;16.00;99.90;;;;;;5053197;28;20511;-78
2021/08/19 06:31:18;;;;;;;;;;;16.10;99.90;;;;;;5053645;28;20021;-79
2021/08/19 06:33:43;;;;;;;6.85;2.88;;;16.30;99.90;;;;;;5052898;28;19921;-80
2021/08/19 06:36:09;;;;;;;7.65;2.85;;;16.70;99.90;;;;;;5053097;28;20036;-79
2021/08/19 06:38:35;;;;;;;;;;;17.00;99.90;;;;;;5053545;28;20104;-79
2021/08/19 06:41:01;;;;;;;11.30;3.55;;;16.90;99.90;;;;;;5053100;28;19991;-78
2021/08/19 06:43:26;;;;;;;9.82;3.20;;;16.70;99.90;;;;;;5035225;28;20060;-80
2021/08/19 06:45:52;;;;;;;8.20;3.40;;;17.00;99.90;;;;;;5053053;28;20025;-79
2021/08/19 06:48:18;;;;;;;;;;;17.30;99.90;;;;;;5053383;28;20138;-81
2021/08/19 06:50:43;;;;;;;15.73;3.15;;;17.40;99.90;;;;;;5053171;28;19932;-79
2021/08/19 06:53:09;;;;;;;8.35;2.90;;;17.20;99.90;;;;;;5053238;28;20097;-80
2021/08/19 06:55:35;;;;;;;8.50;3.42;;;17.50;99.90;;;;;;5053080;28;20036;-79
2021/08/19 06:58:01;;;;;;;9.07;3.10;;;17.70;99.90;;;;;;5052927;28;20018;-79
2021/08/19 07:00:27;;;;;;;10.13;2.95;;;17.50;99.90;;;;;;5052891;28;20500;-78
2021/08/19 07:02:52;;;;;;;8.30;3.50;;;17.70;99.90;;;;;;5052830;28;20029;-80
2021/08/19 07:05:19;;;;;;;10.85;3.13;;;18.10;99.90;;;;;;5052861;28;20075;-80
2021/08/19 07:07:44;;;;;;;7.25;2.63;;;18.30;99.90;;;;;;5034860;28;20036;-79
2021/08/19 07:10:10;;;;;;;6.25;2.70;;;18.60;99.90;;;;;;5052801;28;20024;-79
2021/08/19 07:12:37;;;;;;;7.22;2.67;;;18.80;99.90;;;;;;5052797;28;20489;-79
2021/08/19 07:15:04;;;;;;;7.78;2.70;;;19.30;99.90;;;;;;5052705;28;20032;-79
2021/08/19 07:17:30;;;;;;;8.50;3.25;;;19.10;99.90;;;;;;5037611;28;20017;-79
2021/08/19 07:19:56;;;;;;;7.65;2.60;;;18.70;99.90;;;;;;5056538;28;20075;-78
2021/08/19 07:22:22;;;;;;;7.95;3.03;;;19.30;99.90;;;;;;5056480;28;20474;-79
2021/08/19 07:24:48;;;;;;;9.23;2.80;;;20.00;99.90;;;;;;5056491;28;20029;-78
2021/08/19 07:27:13;;;;;;;8.40;2.95;;;20.30;99.90;;;;;;5056475;28;20051;-80
2021/08/19 07:29:39;;;;;;;7.10;2.65;;;20.50;99.90;;;;;;5056379;28;20036;-79
2021/08/19 07:32:05;;;;;;;7.10;2.67;;;20.60;99.90;;;;;;5056398;28;20555;-80
2021/08/19 07:34:31;;;;;;;6.93;2.85;;;20.70;99.90;;;;;;5056001;28;20049;-79
2021/08/19 07:36:57;;;;;;;11.90;3.00;;;20.10;99.90;;;;;;5056743;28;20021;-78
2021/08/19 07:39:22;;;;;;;9.32;2.97;;;19.20;99.90;;;;;;5056498;28;20083;-79
2021/08/19 07:41:48;;;;;;;9.00;3.30;;;20.00;99.90;;;;;;5038236;28;20025;-80
2021/08/19 07:44:14;;;;;;;8.88;3.42;;;19.30;99.90;;;;;;5056106;28;20040;-79
2021/08/19 07:46:40;;;;;;;8.90;3.03;;;20.40;99.90;;;;;;5056317;28;20109;-80
2021/08/19 07:49:06;;;;;;;8.15;3.05;;;20.90;99.90;;;;;;5056543;28;20033;-78
2021/08/19 07:51:33;;;;;;;9.98;3.38;;;20.80;99.90;;;;;;5056195;28;20036;-79
2021/08/19 07:53:59;;;;;;;7.90;3.30;;;20.80;99.90;;;;;;5055813;28;20402;-80
2021/08/19 07:56:25;;;;;;;11.18;2.97;;;20.80;99.90;;;;;;5055898;28;20100;-80
2021/08/19 07:58:51;;;;;;;7.40;2.83;;;20.60;99.90;;;;;;5056068;28;20413;-79
2021/08/19 08:01:17;;;;;;;6.93;2.90;;;20.20;99.90;;;;;;5055871;28;20021;-79
2021/08/19 08:03:43;;;;;;;8.45;3.10;;;20.80;99.90;;;;;;5055823;28;20469;-80
2021/08/19 08:06:10;;;;;;;8.75;3.00;;;21.50;99.90;;;;;;5055722;28;20070;-81
2021/08/19 08:08:36;;;;;;;6.43;2.72;;;22.90;99.10;;;;;;5056007;28;20017;-79
2021/08/19 08:11:02;;;;;;;7.13;2.90;;;24.50;95.30;;;;;;5055707;28;20503;-76
2021/08/19 08:13:28;;;;;;;7.00;2.83;;;24.70;93.10;;;;;;5055543;28;20031;-77
2021/08/19 08:15:53;;;;;;;8.15;2.75;;;25.00;92.80;;;;;;5055565;28;20025;-77
2021/08/19 08:18:19;;;;;;;7.28;3.00;;;23.90;92.50;;;;;;5055552;28;20025;-77
2021/08/19 08:20:46;;;;;;;7.75;2.83;;;23.40;93.00;;;;;;5055438;28;20556;-77
2021/08/19 08:23:17;;;;;;;11.27;3.03;;;23.70;93.30;;;;;;5055448;28;20090;-78
2021/08/19 08:25:42;;;;;;;5.47;2.40;;;23.40;93.60;;;;;;5037415;28;20400;-77
2021/08/19 08:28:10;;;;;;;8.30;2.72;;;24.00;92.50;;;;;;5054932;28;20104;-78
2021/08/19 08:30:37;;;;;;;6.78;2.60;;;24.30;91.70;;;;;;5037397;28;20481;-77
2021/08/19 08:33:03;;;;;;;7.13;2.55;;;24.50;91.60;;;;;;5055134;28;20025;-76
2021/08/19 08:35:38;;;;;;;6.70;2.60;;;25.90;89.60;;;;;;5055285;28;20515;-77
2021/08/19 08:38:14;;;;;;;7.85;2.50;;;25.70;85.80;;;;;;5036988;28;20021;-77
2021/08/19 08:40:42;;;;;;;6.25;2.35;;;24.50;88.70;;;;;;5055146;28;20086;-77
2021/08/19 08:43:08;;;;;;;8.18;2.40;;;24.50;91.30;;;;;;5037182;28;20362;-77
2021/08/19 08:45:39;;;;;;;13.30;2.97;;;25.10;90.40;;;;;;5037043;28;20390;-78
2021/08/19 08:48:11;;;;;;;8.27;2.55;;;25.70;87.00;;;;;;5054952;28;20017;-78
2021/08/19 08:50:40;;;;;;;6.50;2.60;;;26.40;86.00;;;;;;5055110;28;20207;-78
2021/08/19 08:53:08;;;;;;;7.22;2.50;;;26.90;80.70;;;;;;5054957;28;20055;-77
2021/08/19 08:55:34;;;;;;;5.55;2.50;;;27.90;76.60;;;;;;5054800;28;20025;-78
2021/08/19 08:58:00;;;;;;;7.22;2.53;;;27.90;73.70;;;;;;5054775;28;20048;-77
2021/08/19 09:00:27;;;;;;;7.63;2.53;;;27.90;75.70;;;;;;5054934;28;20158;-77
2021/08/19 09:02:52;;;;;;;7.55;2.42;;;27.90;74.60;;;;;;5054628;28;20017;-78
2021/08/19 09:05:20;;;;;;;7.43;2.80;;;29.60;72.50;;;;;;5054582;28;20103;-78
2021/08/19 09:07:57;;;;;;;4.82;2.50;;;29.80;66.20;;;;;;5054564;28;20397;-77
2021/08/19 09:10:29;;;;;;;6.15;2.38;;;31.00;62.30;;;;;;5054537;28;20037;-79
2021/08/19 09:12:56;;;;;;;7.30;2.60;;;31.70;60.80;;;;;;5054475;28;20045;-80
2021/08/19 09:15:24;;;;;;;6.40;2.63;;;31.00;61.00;;;;;;5054364;28;20032;-78
2021/08/19 09:17:55;;;;;;;7.22;2.88;;;29.90;64.50;;;;;;5054599;28;20123;-79
2021/08/19 09:20:42;;;;;;;5.20;2.35;;;32.80;56.60;;;;;;5036226;28;20028;-79
2021/08/19 09:23:19;;;;;;;7.90;2.67;;;32.00;54.70;;;;;;5054471;28;20044;-80
2021/08/19 09:25:46;;;;;;;10.43;2.80;;;29.90;57.70;;;;;;5054212;28;20035;-77
2021/08/19 09:28:26;;;;;;;6.57;2.45;;;27.90;62.20;;;;;;5054355;28;20489;-76
2021/08/19 09:30:58;;;;;;;8.93;2.70;;;26.40;67.30;;;;;;5054244;28;20067;-77
2021/08/19 09:33:28;;;;;;;8.18;2.38;;;24.70;76.50;;;;;;5053854;28;20048;-76
2021/08/19 09:35:57;;;;;;;9.02;2.75;;;25.00;78.70;;;;;;5054002;28;20035;-77
2021/08/19 09:38:25;;;;;;;8.75;2.72;;;25.60;78.60;;;;;;5053659;28;20064;-77
2021/08/19 09:41:04;;;;;;;7.40;2.60;;;26.20;74.60;;;;;;5053548;28;20061;-77
2021/08/19 09:43:43;;;;;;;11.27;2.50;;;26.10;75.20;;;;;;5053932;28;20025;-77
2021/08/19 09:46:11;;;;;;;9.45;2.60;;;25.70;75.70;;;;;;5036715;28;20443;-77
2021/08/19 09:48:37;;;;;;;7.25;2.33;;;25.70;75.00;;;;;;5053755;28;20477;-76
2021/08/19 09:51:24;;;;;;;10.77;2.80;;;25.50;77.50;;;;;;5053869;28;20032;-77
2021/08/19 09:53:55;;;;;;;9.18;2.72;;;25.20;80.10;;;;;;5053704;28;20075;-77
2021/08/19 09:56:32;;;;;;;8.77;2.75;;;24.40;82.20;;;;;;5053738;28;20025;-77
2021/08/19 09:59:18;;;;;;;11.77;2.85;;;23.20;86.20;;;;;;5035637;28;20028;-77
2021/08/19 10:01:48;;;;;;;13.25;3.10;;;22.70;89.10;;;;;;5053698;28;20024;-78
2021/08/19 10:04:14;;;;;;;8.45;2.67;;;22.90;90.30;;;;;;5053524;28;20549;-77
2021/08/19 10:06:40;;;;;;;7.53;2.70;;;22.90;90.50;;;;;;5053519;28;20071;-77
2021/08/19 10:09:06;;;;;;;8.88;3.03;;;23.50;89.70;;;;;;5053957;28;20497;-78
2021/08/19 10:11:33;;;;;;;7.50;2.45;;;23.40;88.90;;;;;;5053462;28;20024;-78
2021/08/19 10:14:03;;;;;;;9.27;3.58;;;23.10;91.00;;;;;;5053324;28;20028;-77
2021/08/19 10:16:31;;;;;;;7.65;3.15;;;23.30;90.60;;;;;;5053370;28;20028;-76
2021/08/19 10:19:02;;;;;;;7.43;2.83;;;23.10;90.60;;;;;;5053309;28;20032;-78
2021/08/19 10:21:28;;;;;;;6.97;2.80;;;23.20;90.60;;;;;;5035208;28;20021;-77
2021/08/19 10:23:56;;;;;;;7.85;3.25;;;22.40;92.60;;;;;;5053161;28;20040;-78
2021/08/19 10:26:23;;;;;;;9.32;3.20;;;21.60;93.50;;;;;;5053215;28;20487;-77
2021/08/19 10:28:58;;;;;;;6.30;2.72;;;21.60;94.10;;;;;;5053173;28;20043;-77
2021/08/19 10:31:36;;;;;;;6.50;2.60;;;23.30;92.00;;;;;;5053328;28;20029;-77
2021/08/19 10:34:06;;;;;;;10.05;3.33;;;22.60;92.40;;;;;;5052878;28;20045;-77
2021/08/19 10:36:49;;;;;;;7.63;2.50;;;23.20;91.20;;;;;;5053104;28;20017;-76
2021/08/19 10:39:23;;;;;;;8.50;2.88;;;24.10;90.00;;;;;;5034934;28;20489;-77
2021/08/19 10:41:50;;;;;;;6.47;2.33;;;23.50;91.20;;;;;;5052954;28;20021;-76
2021/08/19 10:44:17;;;;;;;6.40;2.42;;;24.20;89.80;;;;;;5053097;28;20480;-77
2021/08/19 10:46:49;;;;;;;7.97;2.88;;;24.20;90.40;;;;;;5053080;28;20100;-77
2021/08/19 10:49:33;;;;;;;6.43;2.40;;;25.20;85.60;;;;;;5053060;28;20097;-77
2021/08/19 10:52:07;;;;;;;6.22;2.40;;;25.10;85.00;;;;;;5056924;28;20074;-77
2021/08/19 10:54:35;;;;;;;6.57;2.17;;;24.30;86.70;;;;;;5057040;28;20134;-77
2021/08/19 10:57:32;;;;;;;7.38;2.78;;;23.60;88.80;;;;;;5057021;28;20025;-76
2021/08/19 11:00:02;;;;;;;6.47;2.33;;;23.60;91.10;;;;;;5057260;28;20044;-76
2021/08/19 11:02:40;;;;;;;8.50;2.70;;;24.00;90.40;;;;;;5056963;28;20019;-75
2021/08/19 11:05:07;;;;;;;7.28;2.60;;;24.00;90.10;;;;;;5056980;28;20037;-76
2021/08/19 11:07:52;;;;;;;8.27;2.25;;;24.10;90.00;;;;;;5056865;28;20021;-77
2021/08/19 11:10:23;;;;;;;5.38;2.10;;;23.10;91.20;;;;;;5056793;28;20501;-77
2021/08/19 11:12:50;;;;;;;10.02;2.25;;;23.40;91.30;;;;;;5056919;28;20207;-78
2021/08/19 11:15:16;;;;;;;6.32;2.20;;;24.50;90.30;;;;;;5038873;28;20029;-79
2021/08/19 11:17:56;;;;;;;6.68;2.50;;;24.40;88.00;;;;;;5056624;28;20095;-78
2021/08/19 11:20:24;;;;;;;6.65;2.38;;;22.40;92.80;;;;;;5056748;28;20025;-78
2021/08/19 11:23:06;;;;;;;4.38;2.20;;;22.20;93.70;;;;;;5056767;28;20017;-75
2021/08/19 11:25:34;;;;;;;5.30;2.00;;;22.40;93.80;;;;;;5056498;28;20075;-77
2021/08/19 11:28:14;;;;;;;8.77;2.00;;;23.50;92.70;;;;;;5056491;28;20105;-77
2021/08/19 11:30:49;;;;;;;4.20;1.83;;;23.80;91.40;;;;;;5056609;28;20046;-77
2021/08/19 11:33:26;;;;;;;4.70;1.88;;;23.40;92.10;;;;;;5056303;28;20049;-78
2021/08/19 11:35:59;;;;;;;6.47;2.03;;;24.10;91.50;;;;;;5056508;28;20036;-76
2021/08/19 11:38:27;;;;;;;4.28;1.85;;;23.70;90.90;;;;;;5056327;28;20010;-78
2021/08/19 11:40:55;;;;;;;5.93;1.90;;;24.10;91.40;;;;;;5056224;28;20071;-78
2021/08/19 11:43:24;;;;;;;7.80;2.00;;;24.50;90.60;;;;;;5056142;28;20021;-77
2021/08/19 11:46:11;;;;;;;5.47;1.90;;;24.90;89.50;;;;;;5056139;28;20029;-77
2021/08/19 11:49:01;;;;;;;5.65;1.90;;;24.70;90.60;;;;;;5055647;28;20060;-78
2021/08/19 11:51:28;;;;;;;5.43;1.85;;;24.60;91.40;;;;;;5056155;28;20021;-78
2021/08/19 11:54:02;;;;;;;7.32;2.08;;;24.10;92.00;;;;;;5056142;28;20021;-75
2021/08/19 11:56:32;;;;;;;7.90;2.10;;;23.70;92.30;;;;;;5056270;28;20025;-78
2021/08/19 11:59:06;;;;;;;4.20;1.90;;;24.30;91.30;;;;;;5037649;28;20370;-77
2021/08/19 12:01:33;;;;;;;10.23;2.20;;;24.20;91.00;;;;;;5055526;28;20485;-78
2021/08/19 12:03:59;;;;;;;6.15;1.90;;;23.30;92.20;;;;;;5055588;28;20029;-78
2021/08/19 12:06:27;;;;;;;6.07;1.90;;;24.40;91.60;;;;;;5055984;28;20036;-77
2021/08/19 12:08:56;;;;;;;5.30;1.90;;;24.10;91.60;;;;;;5055758;28;20029;-77
2021/08/19 12:11:25;;;;;;;3.83;1.85;;;23.10;93.00;;;;;;5055677;28;20036;-76
2021/08/19 12:13:52;;;;;;;4.80;1.85;;;23.10;93.10;;;;;;5037650;28;20029;-76
2021/08/19 12:16:23;;;;;;;4.80;1.77;;;23.40;92.90;;;;;;5055636;28;20092;-77
2021/08/19 12:19:08;;;;;;;4.13;1.80;;;23.90;92.60;;;;;;5055473;28;20052;-77
2021/08/19 12:21:36;;;;;;;6.50;1.90;;;24.20;92.20;;;;;;5055549;28;20021;-77
2021/08/19 12:24:10;;;;;;;4.00;1.90;;;24.30;92.00;;;;;;5055439;28;20033;-77
2021/08/19 12:26:36;;;;;;;5.15;1.90;;;23.90;92.80;;;;;;5055442;28;20430;-76
2021/08/19 12:29:02;;;;;;;6.28;2.13;;;25.40;91.10;;;;;;5055321;28;20107;-77
2021/08/19 12:31:49;;;;;;;5.22;2.00;;;24.20;90.80;;;;;;5055286;28;20393;-77
2021/08/19 12:34:16;;;;;;;5.75;2.08;;;24.50;91.40;;;;;;5056883;28;20052;-77
2021/08/19 12:36:42;;;;;;;6.88;2.10;;;24.00;92.50;;;;;;5075270;28;20484;-76
2021/08/19 12:39:23;;;;;;;8.15;2.13;;;24.10;93.10;;;;;;5075200;28;20020;-78
2021/08/19 12:41:52;;;;;;;5.43;2.10;;;24.50;91.50;;;;;;5075480;28;20055;-78
2021/08/19 12:44:20;;;;;;;5.78;2.25;;;23.80;93.60;;;;;;5075067;28;20024;-77
2021/08/19 12:46:49;;;;;;;4.65;2.00;;;23.80;93.10;;;;;;5073785;28;20393;-78
2021/08/19 12:49:30;;;;;;;5.00;1.80;;;25.00;91.80;;;;;;5075082;28;20028;-76
2021/08/19 12:52:20;;;;;;;3.53;1.85;;;24.50;91.70;;;;;;5073632;28;20029;-77
2021/08/19 12:55:11;;;;;;;5.60;1.98;;;24.60;92.00;;;;;;5074936;28;20374;-77
2021/08/19 12:57:44;;;;;;;3.28;1.52;;;25.70;89.60;;;;;;5073267;28;20017;-78
2021/08/19 13:00:15;;;;;;;5.40;1.83;;;25.30;89.80;;;;;;5074920;28;20028;-76
2021/08/19 13:02:42;;;;;;;3.72;1.75;;;25.10;90.30;;;;;;5074888;28;20051;-78
2021/08/19 13:05:10;;;;;;;5.78;1.80;;;24.10;91.20;;;;;;5074702;28;20473;-77